Time;durP1;ratioP1;P1;durP2;ratioP2;P2;SDS_P1;SDS_P2;PMS_P1;PMS_P2;Temp;Humidity;BMP_temperature;BMP_pressure;BME280_temperature;BME280_humidity;BME280_pressure;Samples;Min_cycle;Max_cycle;Signal;HPM_P1;HPM_P2
2022/10/08 00:01:16;;;;;;;75.30;46.20;;;9.40;99.90;;;;;;5075082;28;20103;-57
2022/10/08 00:03:44;;;;;;;72.25;44.90;;;9.40;99.90;;;;;;5075126;28;20055;-57
2022/10/08 00:06:16;;;;;;;70.45;44.63;;;9.40;99.90;;;;;;5075083;28;20017;-57
2022/10/08 00:08:46;;;;;;;69.95;46.50;;;9.40;99.90;;;;;;5075007;28;20477;-57
2022/10/08 00:11:17;;;;;;;76.65;47.75;;;9.40;99.90;;;;;;5075168;28;20382;-57
2022/10/08 00:13:44;;;;;;;75.10;47.75;;;9.30;99.90;;;;;;5074697;28;20433;-57
2022/10/08 00:16:22;;;;;;;92.22;51.75;;;9.40;99.90;;;;;;5075016;28;20087;-57
2022/10/08 00:18:50;;;;;;;83.15;47.42;;;9.40;99.90;;;;;;5074894;28;20024;-57
2022/10/08 00:21:23;;;;;;;87.53;49.10;;;9.40;99.90;;;;;;5074837;28;20055;-57
2022/10/08 00:23:50;;;;;;;76.93;45.35;;;9.40;99.90;;;;;;5074990;28;20041;-57
2022/10/08 00:26:22;;;;;;;66.13;44.60;;;9.50;99.90;;;;;;5094512;28;20016;-57
2022/10/08 00:28:49;;;;;;;65.10;41.15;;;9.40;99.90;;;;;;5094912;28;20039;-57
2022/10/08 00:31:18;;;;;;;62.63;41.67;;;9.50;99.90;;;;;;5095052;28;20103;-57
2022/10/08 00:33:47;;;;;;;63.00;39.83;;;9.40;99.90;;;;;;5094730;28;20045;-57
2022/10/08 00:36:13;;;;;;;57.97;39.10;;;9.30;99.90;;;;;;5094942;28;20500;-57
2022/10/08 00:38:39;;;;;;;64.35;40.95;;;9.20;99.90;;;;;;5095016;28;20028;-57
2022/10/08 00:41:11;;;;;;;66.07;42.08;;;9.20;99.90;;;;;;5094707;28;20032;-57
2022/10/08 00:43:41;;;;;;;58.03;38.50;;;9.20;99.90;;;;;;5094883;28;20469;-57
2022/10/08 00:46:17;;;;;;;74.30;44.20;;;9.30;99.90;;;;;;5084263;28;20036;-57
2022/10/08 00:48:43;;;;;;;74.78;44.40;;;9.20;99.90;;;;;;5074377;28;20036;-57
2022/10/08 00:51:09;;;;;;;67.93;43.72;;;9.10;99.90;;;;;;5074605;28;20139;-57
2022/10/08 00:53:35;;;;;;;78.22;46.13;;;9.00;99.90;;;;;;5074374;28;20032;-57
2022/10/08 00:56:02;;;;;;;77.55;44.80;;;8.90;99.90;;;;;;5074146;28;20040;-57
2022/10/08 00:58:30;;;;;;;86.13;47.53;;;8.90;99.90;;;;;;5074328;28;20092;-57
2022/10/08 01:00:57;;;;;;;85.22;47.95;;;8.80;99.90;;;;;;5074535;28;20254;-57
2022/10/08 01:03:23;;;;;;;95.38;52.00;;;8.80;99.90;;;;;;5074302;28;20028;-57
2022/10/08 01:05:55;;;;;;;90.25;49.42;;;8.80;99.90;;;;;;5074209;28;20085;-57
2022/10/08 01:08:42;;;;;;;79.22;46.42;;;8.80;99.90;;;;;;5074332;28;20033;-57
2022/10/08 01:11:20;;;;;;;90.93;50.20;;;8.80;99.90;;;;;;5074305;28;20095;-57
2022/10/08 01:14:03;;;;;;;98.40;53.88;;;8.80;99.90;;;;;;5074037;28;20044;-57
2022/10/08 01:16:57;;;;;;;84.95;47.03;;;8.80;99.90;;;;;;5074088;28;20107;-57
2022/10/08 01:19:49;;;;;;;77.43;41.92;;;8.90;99.90;;;;;;5074159;28;20390;-57
2022/10/08 01:22:47;;;;;;;102.80;50.58;;;8.90;99.90;;;;;;5074266;28;20036;-57
2022/10/08 01:25:48;;;;;;;101.15;50.70;;;8.80;99.90;;;;;;5085052;28;20086;-57
2022/10/08 01:28:13;;;;;;;;;;;8.70;99.90;;;;;;5095270;28;20043;-57
2022/10/08 01:30:48;;;;;;;63.35;38.83;;;8.60;99.90;;;;;;5094211;28;19912;-57
2022/10/08 01:33:28;;;;;;;71.32;42.25;;;8.80;99.90;;;;;;5094033;28;20487;-57
2022/10/08 01:35:58;;;;;;;65.75;40.50;;;8.80;99.90;;;;;;5094366;28;20035;-57
2022/10/08 01:38:28;;;;;;;68.47;40.65;;;8.70;99.90;;;;;;5094238;28;20032;-57
2022/10/08 01:40:57;;;;;;;73.22;44.45;;;8.80;99.90;;;;;;5094171;28;20036;-57
2022/10/08 01:43:27;;;;;;;77.20;45.63;;;8.70;99.90;;;;;;5094278;28;20103;-57
2022/10/08 01:45:58;;;;;;;74.43;44.57;;;8.60;99.90;;;;;;5085667;28;20485;-57
2022/10/08 01:48:32;;;;;;;77.20;44.63;;;8.50;99.90;;;;;;5073906;28;20393;-57
2022/10/08 01:51:23;;;;;;;82.40;48.13;;;8.50;99.90;;;;;;5074032;28;20044;-57
2022/10/08 01:53:51;;;;;;;104.72;52.05;;;8.50;99.90;;;;;;5073615;28;20044;-57
2022/10/08 01:56:22;;;;;;;101.00;51.60;;;8.50;99.90;;;;;;5073917;28;20032;-57
2022/10/08 01:58:53;;;;;;;;;;;8.50;99.90;;;;;;5074267;28;20036;-57
2022/10/08 02:01:26;;;;;;;;;;;8.50;99.90;;;;;;5074380;28;19908;-57
2022/10/08 02:06:42;;;;;;;63.40;40.10;;;8.50;99.90;;;;;;5073629;28;20044;-57
2022/10/08 02:09:09;;;;;;;60.58;39.75;;;8.50;99.90;;;;;;5076290;28;20024;-57
2022/10/08 02:11:35;;;;;;;62.35;38.70;;;8.40;99.90;;;;;;5077403;28;20032;-57
2022/10/08 02:14:04;;;;;;;61.90;41.38;;;8.50;99.90;;;;;;5077031;28;20478;-57
2022/10/08 02:16:34;;;;;;;61.67;40.47;;;8.40;99.90;;;;;;5077224;28;20355;-57
2022/10/08 02:19:18;;;;;;;58.30;35.58;;;8.40;99.90;;;;;;5077329;28;20035;-57
2022/10/08 02:21:44;;;;;;;64.03;38.80;;;8.30;99.90;;;;;;5077099;28;20036;-57
2022/10/08 02:24:21;;;;;;;61.92;38.95;;;8.20;99.90;;;;;;5079291;28;20040;-57
2022/10/08 02:26:52;;;;;;;65.32;38.20;;;8.20;99.90;;;;;;5097760;28;20024;-57
2022/10/08 02:29:19;;;;;;;57.97;38.90;;;8.20;99.90;;;;;;5097606;28;20035;-57
2022/10/08 02:32:07;;;;;;;65.43;39.55;;;8.10;99.90;;;;;;5097389;28;20024;-57
2022/10/08 02:34:40;;;;;;;61.92;38.30;;;8.10;99.90;;;;;;5097150;28;20114;-57
2022/10/08 02:37:20;;;;;;;64.60;40.10;;;8.00;99.90;;;;;;5097341;28;20373;-56
2022/10/08 02:39:52;;;;;;;75.68;41.95;;;7.90;99.90;;;;;;5097267;28;20457;-56
2022/10/08 02:42:21;;;;;;;70.35;42.17;;;7.90;99.90;;;;;;5097213;28;20063;-57
2022/10/08 02:44:57;;;;;;;66.07;42.38;;;7.80;99.90;;;;;;5097159;28;20089;-57
2022/10/08 02:47:27;;;;;;;65.78;41.92;;;7.80;99.90;;;;;;5056933;28;20025;-57
2022/10/08 02:49:57;;;;;;;66.57;41.50;;;7.80;99.90;;;;;;5056778;28;20029;-57
2022/10/08 02:52:26;;;;;;;58.43;39.20;;;7.80;99.90;;;;;;5056547;28;20074;-56
2022/10/08 02:54:54;;;;;;;60.88;38.92;;;7.80;99.90;;;;;;5056683;28;20268;-57
2022/10/08 02:57:22;;;;;;;62.35;37.50;;;7.80;99.90;;;;;;5056502;28;20033;-57
2022/10/08 02:59:49;;;;;;;61.03;35.97;;;7.80;99.90;;;;;;5056528;28;20032;-57
2022/10/08 03:02:26;;;;;;;52.53;34.58;;;7.80;99.90;;;;;;5056532;28;20025;-57
2022/10/08 03:05:02;;;;;;;62.58;36.35;;;8.00;99.90;;;;;;5056266;28;20040;-56
2022/10/08 03:07:30;;;;;;;54.90;33.20;;;8.00;99.90;;;;;;5056455;28;20470;-57
2022/10/08 03:09:57;;;;;;;47.45;31.58;;;8.00;99.90;;;;;;5056365;28;20063;-57
2022/10/08 03:12:24;;;;;;;45.47;31.42;;;8.00;99.90;;;;;;5056061;28;20037;-56
2022/10/08 03:14:51;;;;;;;45.10;29.38;;;7.90;99.90;;;;;;5056317;28;20021;-56
2022/10/08 03:17:30;;;;;;;46.17;29.35;;;7.80;99.90;;;;;;5056310;28;20017;-57
2022/10/08 03:19:56;;;;;;;44.53;28.48;;;7.80;99.90;;;;;;5055915;28;20040;-56
2022/10/08 03:22:23;;;;;;;46.50;30.15;;;7.90;99.90;;;;;;5056155;28;20033;-57
2022/10/08 03:24:49;;;;;;;53.40;31.80;;;8.00;99.90;;;;;;5071034;28;20405;-57
2022/10/08 03:27:15;;;;;;;85.40;40.03;;;8.00;99.90;;;;;;5096316;28;20036;-57
2022/10/08 03:29:41;;;;;;;66.97;37.95;;;7.90;99.90;;;;;;5096147;28;20444;-57
2022/10/08 03:32:07;;;;;;;64.13;36.35;;;7.90;99.90;;;;;;5096070;28;20035;-56
2022/10/08 03:34:33;;;;;;;58.05;36.95;;;7.90;99.90;;;;;;5095803;28;20032;-57
2022/10/08 03:36:59;;;;;;;57.63;35.70;;;7.90;99.90;;;;;;5096013;28;20057;-57
2022/10/08 03:39:25;;;;;;;52.58;34.05;;;7.90;99.90;;;;;;5095952;28;20032;-57
2022/10/08 03:41:51;;;;;;;45.17;31.42;;;7.90;99.90;;;;;;5095852;28;20441;-57
2022/10/08 03:44:16;;;;;;;57.33;32.72;;;7.80;99.90;;;;;;5095885;28;20028;-57
2022/10/08 03:46:42;;;;;;;47.67;30.85;;;7.90;99.90;;;;;;5080250;28;20037;-57
2022/10/08 03:49:08;;;;;;;53.80;32.28;;;7.80;99.90;;;;;;5075547;28;20120;-56
2022/10/08 03:51:34;;;;;;;53.90;31.65;;;7.80;99.90;;;;;;5075370;28;20385;-56
2022/10/08 03:54:00;;;;;;;48.60;30.90;;;7.80;99.90;;;;;;5075173;28;20496;-56
2022/10/08 03:56:26;;;;;;;50.78;31.58;;;7.80;99.90;;;;;;5075397;28;20125;-56
2022/10/08 03:58:59;;;;;;;42.88;31.63;;;7.80;99.90;;;;;;5075456;28;20031;-57
2022/10/08 04:01:27;;;;;;;47.70;29.05;;;7.80;99.90;;;;;;5075111;28;20488;-56
2022/10/08 04:03:53;;;;;;;47.80;30.85;;;7.80;99.90;;;;;;5075134;28;20054;-56
2022/10/08 04:06:19;;;;;;;66.05;36.05;;;7.70;99.90;;;;;;5075132;28;20470;-56
2022/10/08 04:08:45;;;;;;;94.38;42.88;;;7.70;99.90;;;;;;5075078;28;20063;-57
2022/10/08 04:11:13;;;;;;;66.40;35.28;;;7.70;99.90;;;;;;5075169;28;20032;-56
2022/10/08 04:13:40;;;;;;;63.67;35.30;;;7.80;99.90;;;;;;5074747;28;20551;-56
2022/10/08 04:16:09;;;;;;;43.45;26.17;;;7.70;99.90;;;;;;5074960;28;20081;-57
2022/10/08 04:18:35;;;;;;;42.65;27.05;;;7.80;99.90;;;;;;5074888;28;20024;-57
2022/10/08 04:21:04;;;;;;;60.10;28.85;;;7.70;99.90;;;;;;5074832;28;20516;-57
2022/10/08 04:23:34;;;;;;;52.38;29.33;;;7.70;99.90;;;;;;5074785;28;20043;-56
2022/10/08 04:26:01;;;;;;;49.17;31.80;;;7.70;99.90;;;;;;5092341;28;20036;-56
2022/10/08 04:28:27;;;;;;;55.67;31.08;;;7.70;99.90;;;;;;5095067;28;20184;-57
2022/10/08 04:30:55;;;;;;;53.53;31.30;;;7.70;99.90;;;;;;5094323;28;20491;-57
2022/10/08 04:33:21;;;;;;;55.25;31.42;;;7.70;99.90;;;;;;5094903;28;20043;-57
2022/10/08 04:35:46;;;;;;;46.45;30.65;;;7.70;99.90;;;;;;5095011;28;20028;-56
2022/10/08 04:38:13;;;;;;;54.85;33.72;;;7.60;99.90;;;;;;5094916;28;20065;-57
2022/10/08 04:40:39;;;;;;;73.63;41.92;;;7.60;99.90;;;;;;5095020;28;20024;-57
2022/10/08 04:43:05;;;;;;;83.00;51.35;;;7.60;99.90;;;;;;5095114;28;20035;-57
2022/10/08 04:45:31;;;;;;;96.10;50.25;;;7.60;99.90;;;;;;5089386;28;20042;-57
2022/10/08 04:47:57;;;;;;;80.97;43.08;;;7.70;99.90;;;;;;5074643;28;20112;-56
2022/10/08 04:50:23;;;;;;;73.57;39.05;;;7.80;99.90;;;;;;5074574;28;20052;-56
2022/10/08 04:52:49;;;;;;;70.85;38.00;;;7.90;99.90;;;;;;5074320;28;20063;-56
2022/10/08 04:55:15;;;;;;;66.30;38.05;;;7.90;99.90;;;;;;5074483;28;20036;-57
2022/10/08 04:57:40;;;;;;;66.05;36.85;;;8.00;99.90;;;;;;5074415;28;20036;-57
2022/10/08 05:00:07;;;;;;;73.28;37.97;;;7.90;99.90;;;;;;5074453;28;20028;-56
2022/10/08 05:02:33;;;;;;;68.05;38.70;;;7.90;99.90;;;;;;5074805;28;20029;-57
2022/10/08 05:04:59;;;;;;;78.07;40.95;;;7.90;99.90;;;;;;5074237;28;20047;-57
2022/10/08 05:07:25;;;;;;;63.70;39.83;;;7.90;99.90;;;;;;5074407;28;20028;-57
2022/10/08 05:09:50;;;;;;;64.35;39.83;;;8.00;99.90;;;;;;5074343;28;20037;-56
2022/10/08 05:12:16;;;;;;;63.33;37.85;;;8.00;99.90;;;;;;5074053;28;20044;-56
2022/10/08 05:14:42;;;;;;;64.63;38.30;;;8.00;99.90;;;;;;5074250;28;20025;-56
2022/10/08 05:17:08;;;;;;;53.70;32.05;;;8.00;99.90;;;;;;5074306;28;20535;-57
2022/10/08 05:19:34;;;;;;;53.45;33.45;;;8.00;99.90;;;;;;5074201;28;20021;-57
2022/10/08 05:22:00;;;;;;;56.03;34.25;;;8.00;99.90;;;;;;5074204;28;20036;-56
2022/10/08 05:24:26;;;;;;;70.35;37.45;;;8.00;99.90;;;;;;5078444;28;20107;-57
2022/10/08 05:26:51;;;;;;;70.28;33.70;;;8.00;99.90;;;;;;5094401;28;20024;-57
2022/10/08 05:29:18;;;;;;;71.45;34.70;;;8.10;99.90;;;;;;5094276;28;20036;-57
2022/10/08 05:31:44;;;;;;;66.60;32.10;;;8.10;99.90;;;;;;5094464;28;20470;-57
2022/10/08 05:34:14;;;;;;;61.40;32.72;;;8.10;99.90;;;;;;5094462;28;20024;-57
2022/10/08 05:36:40;;;;;;;75.05;36.70;;;8.20;99.90;;;;;;5094332;28;20031;-57
2022/10/08 05:39:06;;;;;;;85.75;40.78;;;8.20;99.90;;;;;;5094540;28;20024;-57
2022/10/08 05:41:35;;;;;;;83.88;41.33;;;8.20;99.90;;;;;;5094228;28;20028;-57
2022/10/08 05:44:02;;;;;;;80.22;40.33;;;8.40;99.90;;;;;;5098195;28;20622;-57
2022/10/08 05:46:30;;;;;;;86.57;41.00;;;8.50;99.90;;;;;;5084745;28;20039;-57
2022/10/08 05:48:57;;;;;;;103.60;44.95;;;8.50;99.90;;;;;;5077776;28;20116;-57
2022/10/08 05:51:24;;;;;;;92.30;44.47;;;8.70;99.90;;;;;;5077940;28;20043;-57
2022/10/08 05:53:51;;;;;;;85.53;42.58;;;8.70;99.90;;;;;;5077617;28;20047;-57
2022/10/08 05:56:20;;;;;;;94.70;44.88;;;8.80;99.90;;;;;;5077603;28;20488;-57
2022/10/08 05:58:46;;;;;;;119.85;48.38;;;8.90;99.90;;;;;;5077807;28;20096;-57
2022/10/08 06:01:15;;;;;;;94.70;45.47;;;9.00;99.90;;;;;;5077682;28;20049;-57
2022/10/08 06:03:41;;;;;;;92.57;45.13;;;9.00;99.90;;;;;;5077596;28;20021;-57
2022/10/08 06:06:10;;;;;;;90.53;46.17;;;9.10;99.90;;;;;;5077445;28;20028;-57
2022/10/08 06:08:37;;;;;;;98.05;47.42;;;9.40;99.90;;;;;;5077578;28;20093;-57
2022/10/08 06:11:04;;;;;;;95.40;46.45;;;9.50;99.90;;;;;;5077147;28;20585;-57
2022/10/08 06:13:31;;;;;;;97.75;45.45;;;9.60;99.90;;;;;;5077390;28;20093;-57
2022/10/08 06:16:08;;;;;;;88.18;45.90;;;9.70;99.90;;;;;;5077383;28;20028;-57
2022/10/08 06:18:37;;;;;;;91.43;45.28;;;9.80;99.90;;;;;;5077189;28;20530;-57
2022/10/08 06:21:08;;;;;;;109.53;46.15;;;10.10;99.90;;;;;;5077376;28;20020;-57
2022/10/08 06:23:35;;;;;;;92.82;44.30;;;10.30;99.90;;;;;;5076942;28;20039;-57
2022/10/08 06:26:06;;;;;;;73.50;41.17;;;10.50;99.90;;;;;;5094942;28;20097;-57
2022/10/08 06:28:34;;;;;;;78.60;41.55;;;10.60;99.90;;;;;;5097257;28;20616;-57
2022/10/08 06:31:01;;;;;;;86.97;41.13;;;10.70;99.90;;;;;;5097344;28;20028;-57
2022/10/08 06:33:27;;;;;;;89.07;39.10;;;11.00;99.90;;;;;;5097145;28;20470;-57
2022/10/08 06:35:53;;;;;;;85.57;40.47;;;11.50;99.90;;;;;;5097300;28;20058;-57
2022/10/08 06:38:20;;;;;;;76.13;39.00;;;12.00;99.90;;;;;;5097051;28;20028;-57
2022/10/08 06:40:46;;;;;;;83.60;39.10;;;12.40;99.90;;;;;;5097106;28;20032;-57
2022/10/08 06:43:14;;;;;;;74.95;39.83;;;12.90;99.90;;;;;;5097071;28;20115;-57
2022/10/08 06:45:42;;;;;;;92.95;41.10;;;13.50;99.90;;;;;;5090199;28;20108;-57
2022/10/08 06:48:09;;;;;;;65.93;37.90;;;13.70;99.90;;;;;;5076963;28;20032;-57
2022/10/08 06:50:36;;;;;;;68.72;37.10;;;14.10;99.90;;;;;;5076726;28;20054;-57
2022/10/08 06:53:04;;;;;;;78.35;36.00;;;14.90;99.90;;;;;;5076404;28;20051;-57
2022/10/08 06:55:31;;;;;;;67.38;36.28;;;15.40;99.90;;;;;;5076382;28;20047;-57
2022/10/08 06:57:58;;;;;;;71.90;35.67;;;15.80;99.90;;;;;;5076627;28;20020;-57
2022/10/08 07:00:24;;;;;;;68.13;36.85;;;16.10;99.90;;;;;;5076523;28;20040;-57
2022/10/08 07:02:50;;;;;;;63.25;35.22;;;16.50;98.90;;;;;;5076811;28;20040;-57
2022/10/08 07:05:16;;;;;;;68.65;36.53;;;16.90;96.20;;;;;;5076137;28;20491;-57
2022/10/08 07:07:42;;;;;;;57.83;33.30;;;17.10;94.80;;;;;;5076397;28;20114;-57
2022/10/08 07:10:08;;;;;;;59.78;35.42;;;17.10;94.30;;;;;;5076386;28;20045;-57
2022/10/08 07:12:34;;;;;;;65.28;35.25;;;17.40;93.00;;;;;;5075944;28;20747;-57
2022/10/08 07:15:00;;;;;;;74.55;39.35;;;17.60;93.00;;;;;;5076228;28;20029;-57
2022/10/08 07:17:28;;;;;;;65.13;38.08;;;17.70;91.60;;;;;;5076270;28;20024;-57
2022/10/08 07:19:55;;;;;;;68.95;37.58;;;17.60;92.90;;;;;;5076360;28;20366;-57
2022/10/08 07:22:21;;;;;;;69.90;36.72;;;18.10;91.20;;;;;;5076083;28;20047;-57
2022/10/08 07:24:47;;;;;;;62.83;36.97;;;17.90;89.80;;;;;;5083328;28;20020;-57
2022/10/08 07:27:13;;;;;;;69.07;36.55;;;18.10;90.40;;;;;;5096001;28;20038;-58
2022/10/08 07:29:39;;;;;;;50.95;31.75;;;17.80;91.80;;;;;;5095973;28;20032;-58
2022/10/08 07:32:05;;;;;;;51.53;32.08;;;18.30;91.30;;;;;;5096042;28;20028;-58
2022/10/08 07:34:31;;;;;;;45.45;28.35;;;18.50;91.10;;;;;;5094696;28;20028;-57
2022/10/08 07:36:57;;;;;;;48.67;28.45;;;18.40;90.20;;;;;;5096210;28;20024;-57
2022/10/08 07:39:23;;;;;;;42.92;28.08;;;18.50;90.40;;;;;;5096131;28;20367;-57
2022/10/08 07:41:49;;;;;;;46.47;28.50;;;18.50;90.40;;;;;;5095536;28;20032;-57
2022/10/08 07:44:16;;;;;;;40.15;27.05;;;18.70;87.70;;;;;;5095850;28;20032;-57
2022/10/08 07:46:48;;;;;;;42.65;27.65;;;17.80;90.70;;;;;;5080300;28;20036;-57
2022/10/08 07:49:15;;;;;;;48.83;26.80;;;17.50;93.30;;;;;;5075502;28;20462;-57
2022/10/08 07:51:42;;;;;;;41.97;27.20;;;18.00;91.40;;;;;;5075411;28;20036;-57
2022/10/08 07:54:11;;;;;;;40.08;25.65;;;18.20;93.00;;;;;;5075361;28;20028;-57
2022/10/08 07:56:37;;;;;;;41.00;26.95;;;18.40;91.90;;;;;;5075383;28;20024;-57
2022/10/08 07:59:04;;;;;;;39.20;25.70;;;18.20;91.00;;;;;;5075463;28;20024;-57
2022/10/08 08:01:31;;;;;;;40.45;27.80;;;18.30;91.60;;;;;;5075390;28;20387;-57
2022/10/08 08:04:01;;;;;;;45.92;28.02;;;18.40;90.80;;;;;;5075178;28;20079;-57
2022/10/08 08:06:29;;;;;;;48.78;28.92;;;18.20;91.30;;;;;;5074227;28;20047;-57
2022/10/08 08:08:56;;;;;;;36.35;27.23;;;17.90;92.50;;;;;;5075063;28;20046;-57
2022/10/08 08:11:23;;;;;;;49.38;27.88;;;18.30;92.60;;;;;;5075076;28;20470;-57
2022/10/08 08:13:51;;;;;;;35.53;25.35;;;18.10;92.20;;;;;;5074794;28;20463;-57
2022/10/08 08:16:19;;;;;;;41.15;26.55;;;18.20;91.80;;;;;;5075028;28;20078;-57
2022/10/08 08:18:47;;;;;;;40.65;26.58;;;18.60;91.80;;;;;;5075245;28;20107;-57
2022/10/08 08:21:19;;;;;;;38.38;26.17;;;19.00;90.70;;;;;;5075027;28;20024;-57
2022/10/08 08:23:50;;;;;;;38.28;26.45;;;18.80;90.10;;;;;;5074908;28;20024;-57
2022/10/08 08:26:24;;;;;;;39.40;26.60;;;19.10;92.30;;;;;;5094699;28;20036;-57
2022/10/08 08:28:58;;;;;;;37.28;25.80;;;19.60;88.80;;;;;;5095109;28;20112;-57
2022/10/08 08:31:36;;;;;;;32.38;23.33;;;19.50;87.80;;;;;;5095047;28;20028;-57
2022/10/08 08:34:07;;;;;;;33.85;24.05;;;19.60;88.00;;;;;;5094793;28;20042;-57
2022/10/08 08:36:36;;;;;;;35.03;24.23;;;19.80;90.00;;;;;;5095081;28;20263;-57
2022/10/08 08:39:03;;;;;;;31.30;23.77;;;20.30;86.70;;;;;;5095019;28;20466;-57
2022/10/08 08:41:53;;;;;;;32.28;21.10;;;20.60;82.30;;;;;;5094945;28;20090;-58
2022/10/08 08:44:23;;;;;;;40.50;24.77;;;21.30;82.50;;;;;;5094797;28;20032;-57
2022/10/08 08:46:57;;;;;;;29.27;19.77;;;21.30;76.80;;;;;;5078533;28;20060;-58
2022/10/08 08:49:56;;;;;;;34.97;21.35;;;22.10;74.40;;;;;;5074577;28;20283;-58
2022/10/08 08:52:25;;;;;;;29.35;18.48;;;22.00;72.50;;;;;;5074654;28;20063;-57
2022/10/08 08:54:53;;;;;;;35.75;20.05;;;22.00;74.10;;;;;;5074749;28;20096;-58
2022/10/08 08:57:45;;;;;;;35.35;17.98;;;22.60;71.50;;;;;;5074460;28;20029;-57
2022/10/08 09:00:17;;;;;;;24.98;18.33;;;22.70;69.40;;;;;;5074486;28;20314;-57
2022/10/08 09:02:51;;;;;;;26.63;18.15;;;22.70;69.40;;;;;;5074597;28;20025;-57
2022/10/08 09:05:19;;;;;;;24.35;16.35;;;23.00;67.20;;;;;;5074231;28;20492;-57
2022/10/08 09:07:50;;;;;;;24.55;15.38;;;23.40;65.50;;;;;;5074275;28;20036;-57
2022/10/08 09:10:22;;;;;;;24.35;16.30;;;23.20;63.70;;;;;;5074204;28;20033;-57
2022/10/08 09:12:52;;;;;;;27.88;16.88;;;23.00;66.10;;;;;;5074155;28;20040;-57
2022/10/08 09:15:36;;;;;;;29.48;17.17;;;22.60;67.20;;;;;;5074471;28;20024;-57
2022/10/08 09:18:03;;;;;;;34.95;16.75;;;23.50;64.60;;;;;;5079017;28;20032;-57
2022/10/08 09:20:30;;;;;;;23.38;15.90;;;23.60;64.40;;;;;;5080758;28;20038;-57
2022/10/08 09:22:57;;;;;;;28.67;17.92;;;23.80;65.30;;;;;;5081129;28;20025;-58
2022/10/08 09:25:25;;;;;;;23.67;15.65;;;24.30;63.60;;;;;;5093002;28;20035;-57
2022/10/08 09:27:56;;;;;;;23.42;16.13;;;24.70;61.30;;;;;;5101125;28;20035;-57
2022/10/08 09:30:37;;;;;;;23.75;15.82;;;24.80;60.20;;;;;;5101118;28;20036;-57
2022/10/08 09:33:28;;;;;;;22.45;15.35;;;25.10;61.50;;;;;;5100819;28;20542;-57
2022/10/08 09:35:54;;;;;;;25.73;15.45;;;25.50;60.50;;;;;;5101044;28;20526;-57
2022/10/08 09:38:23;;;;;;;31.80;17.98;;;25.70;57.70;;;;;;5101073;28;20062;-57
2022/10/08 09:41:15;;;;;;;20.27;14.80;;;25.90;58.30;;;;;;5100965;28;20487;-57
2022/10/08 09:43:41;;;;;;;22.98;14.05;;;25.90;56.50;;;;;;5091458;28;20051;-57
2022/10/08 09:46:29;;;;;;;24.20;13.80;;;26.40;55.90;;;;;;5090532;28;20032;-57
2022/10/08 09:48:56;;;;;;;19.98;14.30;;;26.70;53.80;;;;;;5080639;28;20033;-58
2022/10/08 09:51:22;;;;;;;25.55;13.18;;;27.00;52.60;;;;;;5080807;28;20459;-57
2022/10/08 09:53:57;;;;;;;23.63;14.30;;;26.40;52.40;;;;;;5080401;28;20070;-58
2022/10/08 09:56:27;;;;;;;29.48;15.32;;;26.80;52.70;;;;;;5080596;28;20056;-58
2022/10/08 09:59:04;;;;;;;26.87;14.57;;;26.90;51.50;;;;;;5080630;28;20359;-57
2022/10/08 10:01:31;;;;;;;23.35;12.48;;;28.10;51.00;;;;;;5080553;28;20033;-57
2022/10/08 10:03:59;;;;;;;25.98;12.02;;;27.80;49.40;;;;;;5080522;28;20036;-58
2022/10/08 10:06:26;;;;;;;32.35;16.58;;;28.50;49.00;;;;;;5080343;28;20047;-58
2022/10/08 10:09:00;;;;;;;27.40;14.05;;;27.70;48.40;;;;;;5080588;28;20028;-57
2022/10/08 10:11:38;;;;;;;22.90;14.05;;;27.30;49.50;;;;;;5080377;28;20032;-58
2022/10/08 10:14:30;;;;;;;31.05;14.82;;;27.40;51.30;;;;;;5080233;28;20094;-58
2022/10/08 10:17:05;;;;;;;24.90;13.05;;;27.20;50.10;;;;;;5080609;28;20107;-58
2022/10/08 10:19:42;;;;;;;40.50;15.77;;;27.20;49.60;;;;;;5080346;28;20036;-58
2022/10/08 10:22:20;;;;;;;26.58;14.45;;;27.10;49.90;;;;;;5080345;28;20025;-58
2022/10/08 10:25:03;;;;;;;29.38;13.18;;;26.50;51.30;;;;;;5087576;28;20028;-58
2022/10/08 10:27:58;;;;;;;24.60;13.60;;;26.60;51.40;;;;;;5100647;28;20378;-58
2022/10/08 10:30:25;;;;;;;22.08;13.00;;;26.40;51.60;;;;;;5096117;28;20036;-57
2022/10/08 10:33:07;;;;;;;20.45;12.43;;;27.10;50.80;;;;;;5097287;28;20089;-58
2022/10/08 10:35:49;;;;;;;26.52;13.40;;;26.90;49.80;;;;;;5097126;28;20036;-58
2022/10/08 10:38:27;;;;;;;19.85;13.65;;;26.80;51.60;;;;;;5097256;28;20469;-58
2022/10/08 10:41:30;;;;;;;25.98;13.88;;;26.70;50.90;;;;;;5097039;28;20024;-58
2022/10/08 10:44:05;;;;;;;24.67;14.00;;;26.20;52.60;;;;;;5097226;28;20036;-58
2022/10/08 10:46:36;;;;;;;24.20;13.43;;;26.00;54.20;;;;;;5083195;28;20119;-58
2022/10/08 10:49:08;;;;;;;20.65;13.27;;;26.10;54.00;;;;;;5076851;28;20029;-58
2022/10/08 10:51:53;;;;;;;19.05;13.18;;;26.30;55.10;;;;;;5076721;28;20036;-58
2022/10/08 10:54:25;;;;;;;23.20;12.57;;;26.40;52.80;;;;;;5076466;28;20052;-58
2022/10/08 10:56:56;;;;;;;20.88;13.23;;;26.30;53.60;;;;;;5076649;28;20039;-58
2022/10/08 10:59:45;;;;;;;23.05;14.43;;;26.30;53.70;;;;;;5076710;28;20073;-58
2022/10/08 11:02:19;;;;;;;20.80;13.93;;;26.40;53.50;;;;;;5076818;28;20055;-58
2022/10/08 11:04:57;;;;;;;27.80;16.00;;;26.50;52.90;;;;;;5076354;28;20499;-58
2022/10/08 11:07:41;;;;;;;23.90;15.27;;;26.30;53.80;;;;;;5076435;28;20079;-58
2022/10/08 11:10:16;;;;;;;29.38;17.02;;;26.10;53.40;;;;;;5076274;28;20024;-57
2022/10/08 11:12:58;;;;;;;30.77;16.35;;;25.90;55.40;;;;;;5076213;28;20044;-58
2022/10/08 11:15:49;;;;;;;31.75;17.63;;;26.00;54.50;;;;;;5076341;28;20456;-58
2022/10/08 11:18:19;;;;;;;43.95;18.98;;;25.80;57.40;;;;;;5076302;28;20108;-58
2022/10/08 11:21:03;;;;;;;32.70;20.60;;;26.10;56.40;;;;;;5076397;28;20033;-57
2022/10/08 11:23:38;;;;;;;48.13;24.38;;;26.70;56.70;;;;;;5075886;28;20107;-57
2022/10/08 11:26:17;;;;;;;52.20;27.98;;;26.90;53.20;;;;;;5093978;28;20105;-57
2022/10/08 11:28:54;;;;;;;49.50;26.02;;;27.50;52.80;;;;;;5096204;28;20024;-58
2022/10/08 11:31:30;;;;;;;63.72;31.88;;;28.40;52.30;;;;;;5096224;28;20027;-58
2022/10/08 11:33:57;;;;;;;75.18;32.13;;;28.50;49.40;;;;;;5095951;28;20028;-58
2022/10/08 11:36:32;;;;;;;76.22;33.38;;;28.10;50.40;;;;;;5096086;28;20017;-58
2022/10/08 11:39:39;;;;;;;35.80;19.13;;;27.60;51.10;;;;;;5096127;28;20075;-58
2022/10/08 11:42:20;;;;;;;27.88;14.13;;;28.10;49.30;;;;;;5095882;28;20032;-58
2022/10/08 11:44:46;;;;;;;19.70;12.10;;;28.40;46.80;;;;;;5095921;28;20393;-57
2022/10/08 11:47:40;;;;;;;15.25;8.68;;;28.60;48.90;;;;;;5076417;28;20095;-58
2022/10/08 11:50:22;;;;;;;20.75;9.77;;;28.80;45.80;;;;;;5075649;28;20055;-58
2022/10/08 11:52:49;;;;;;;24.58;10.88;;;29.10;41.50;;;;;;5075248;28;20040;-59
2022/10/08 11:55:22;;;;;;;41.65;20.83;;;29.70;43.20;;;;;;5075887;28;20028;-59
2022/10/08 11:58:22;;;;;;;33.58;16.05;;;29.80;42.50;;;;;;5075467;28;20021;-59
2022/10/08 12:00:52;;;;;;;28.38;12.82;;;29.70;41.90;;;;;;5075370;28;20028;-59
2022/10/08 12:03:28;;;;;;;32.35;12.65;;;30.00;41.50;;;;;;5075176;28;20093;-59
2022/10/08 12:06:13;;;;;;;28.23;14.63;;;29.40;42.40;;;;;;5075187;28;20036;-59
2022/10/08 12:08:49;;;;;;;29.77;16.30;;;29.00;44.40;;;;;;5075100;28;20115;-59
2022/10/08 12:11:39;;;;;;;42.45;20.60;;;28.80;42.50;;;;;;5075069;28;20029;-59
2022/10/08 12:14:11;;;;;;;43.78;21.23;;;28.60;43.60;;;;;;5074904;28;20048;-59
2022/10/08 12:17:03;;;;;;;56.70;25.83;;;28.90;45.90;;;;;;5075155;28;20020;-59
2022/10/08 12:19:32;;;;;;;57.40;27.15;;;28.80;44.10;;;;;;5071178;28;20040;-59
2022/10/08 12:22:23;;;;;;;64.22;29.35;;;28.40;45.20;;;;;;5074911;28;20033;-59
2022/10/08 12:24:57;;;;;;;70.25;32.47;;;28.00;45.00;;;;;;5070245;28;20105;-59
2022/10/08 12:27:24;;;;;;;71.93;32.95;;;27.30;47.70;;;;;;5094818;28;20038;-59
2022/10/08 12:29:54;;;;;;;84.45;38.10;;;27.00;47.70;;;;;;5095058;28;20028;-59
2022/10/08 12:32:26;;;;;;;87.88;38.95;;;26.60;49.40;;;;;;5094833;28;20374;-59
2022/10/08 12:34:52;;;;;;;79.03;36.63;;;26.20;49.60;;;;;;5095024;28;20098;-59
2022/10/08 12:37:43;;;;;;;83.93;36.72;;;25.90;52.60;;;;;;5095032;28;20075;-59
2022/10/08 12:40:40;;;;;;;84.35;39.65;;;26.20;51.90;;;;;;5094956;28;20046;-58
2022/10/08 12:43:30;;;;;;;77.13;38.13;;;26.10;50.20;;;;;;5066290;28;20044;-58
2022/10/08 12:46:22;;;;;;;103.03;48.17;;;26.20;50.80;;;;;;5085908;28;20063;-59
2022/10/08 12:48:56;;;;;;;89.00;43.33;;;26.10;50.70;;;;;;5074451;28;20032;-59
2022/10/08 12:51:51;;;;;;;105.18;44.83;;;26.20;51.40;;;;;;5074196;28;20071;-59
2022/10/08 12:54:23;;;;;;;93.15;45.65;;;26.50;52.10;;;;;;5074118;28;20047;-58
2022/10/08 12:56:52;;;;;;;92.10;44.42;;;26.80;51.40;;;;;;5074329;28;20453;-58
2022/10/08 12:59:25;;;;;;;103.18;45.95;;;26.70;50.40;;;;;;5074467;28;20513;-59